Terminal Aerodrome Forecast
Issued by NWS Cleveland, OH

Home | Current Version | Previous Version | Graphics & Text | Print | Product List | Glossary Off
Versions: 1 2 3 4 5 6 7 8 9 10 11 12 13 14 15 16 17 18 19 20 21 22 23 24 25 26

000
FTUS41 KCLE 041422 AAA
TAFCAK
TAF AMD
KCAK 041422Z 0414/0512 22005KT 5SM -TSRA BR OVC050CB
     FM041600 18006KT 6SM BR VCSH BKN030
     FM041900 20005KT P6SM VCTS BKN035CB OVC080
     FM050000 15003KT P6SM SCT050 BKN250
     FM050700 13004KT 4SM BR SCT120=

USA.gov is the U.S. government's official web portal to all federal, state and local government web resources and services.